createdAt,value
2019-02-08T00:01:45.539Z,107.00
2019-02-08T00:04:50.764Z,91.30
2019-02-08T00:07:55.972Z,124.70
2019-02-08T00:11:02.275Z,129.03
2019-02-08T00:14:07.681Z,350.30
2019-02-08T00:17:12.851Z,280.50
2019-02-08T00:20:18.228Z,217.57
2019-02-08T00:23:26.683Z,103.43
2019-02-08T00:26:30.278Z,277.17
2019-02-08T00:29:35.431Z,124.20
2019-02-08T00:32:40.523Z,187.63
2019-02-08T00:35:45.718Z,212.30
2019-02-08T00:38:50.815Z,210.60
2019-02-08T00:41:56.018Z,160.93
2019-02-08T00:45:01.133Z,102.60
2019-02-08T00:48:06.399Z,128.57
2019-02-08T00:51:11.476Z,149.13
2019-02-08T00:54:16.706Z,104.17
2019-02-08T00:57:21.891Z,119.10
2019-02-08T01:00:27.052Z,160.97
2019-02-08T01:03:32.701Z,161.00
2019-02-08T01:06:38.341Z,165.80
2019-02-08T01:09:43.494Z,192.03
2019-02-08T01:12:48.782Z,224.87
2019-02-08T01:15:54.253Z,210.80
2019-02-08T01:18:59.349Z,187.97
2019-02-08T01:22:06.914Z,163.50
2019-02-08T01:25:15.243Z,121.47
2019-02-08T01:28:20.378Z,119.17
2019-02-08T01:31:25.489Z,81.70
2019-02-08T01:34:30.672Z,98.87
2019-02-08T01:37:35.760Z,117.73
2019-02-08T01:40:40.994Z,91.80
2019-02-08T01:43:46.135Z,87.03
2019-02-08T01:46:51.261Z,97.60
2019-02-08T01:49:56.443Z,129.53
2019-02-08T01:53:01.768Z,76.60
2019-02-08T01:56:06.974Z,123.17
2019-02-08T01:59:12.204Z,78.43
2019-02-08T02:02:17.427Z,101.53
2019-02-08T02:05:22.629Z,121.67
2019-02-08T02:08:27.776Z,151.23
2019-02-08T02:11:32.903Z,147.80
2019-02-08T02:14:38.162Z,212.93
2019-02-08T02:17:43.293Z,152.80
2019-02-08T02:20:48.557Z,155.20
2019-02-08T02:23:56.212Z,121.43
2019-02-08T02:27:00.579Z,188.17
2019-02-08T02:30:08.305Z,126.57
2019-02-08T02:33:13.934Z,139.47
2019-02-08T02:36:19.056Z,109.60
2019-02-08T02:39:24.371Z,98.77
2019-02-08T02:42:29.530Z,104.57
2019-02-08T02:45:36.468Z,87.47
2019-02-08T02:48:41.591Z,73.00
2019-02-08T02:51:46.717Z,72.30
2019-02-08T02:54:52.033Z,68.63
2019-02-08T02:57:57.496Z,69.23
2019-02-08T03:01:02.685Z,68.83
2019-02-08T03:04:07.960Z,73.87
2019-02-08T03:07:13.067Z,133.43
2019-02-08T03:10:19.001Z,124.40
2019-02-08T03:13:24.261Z,177.43
2019-02-08T03:16:29.449Z,160.67
2019-02-08T03:19:34.565Z,110.07
2019-02-08T03:22:39.755Z,97.93
2019-02-08T03:25:44.945Z,91.93
2019-02-08T03:28:50.219Z,122.40
2019-02-08T03:31:55.276Z,114.97
2019-02-08T03:35:00.402Z,127.33
2019-02-08T03:38:05.765Z,153.50
2019-02-08T03:41:10.965Z,108.63
2019-02-08T03:44:16.188Z,261.20
2019-02-08T03:47:21.328Z,194.87
2019-02-08T03:50:26.460Z,126.20
2019-02-08T03:53:31.614Z,138.30
2019-02-08T03:56:36.705Z,110.97
2019-02-08T03:59:41.796Z,244.77
2019-02-08T04:02:46.973Z,169.93
2019-02-08T04:05:52.181Z,161.13
2019-02-08T04:08:57.343Z,228.67
2019-02-08T04:12:02.487Z,216.30
2019-02-08T04:15:09.901Z,99.93
2019-02-08T04:18:15.042Z,191.83
2019-02-08T04:21:20.178Z,209.00
2019-02-08T04:24:30.070Z,204.90
2019-02-08T04:27:32.165Z,144.20
2019-02-08T04:30:37.390Z,289.77
2019-02-08T04:33:43.559Z,186.50
2019-02-08T04:36:48.706Z,113.87
2019-02-08T04:39:53.883Z,88.37
2019-02-08T04:42:59.165Z,159.73
2019-02-08T04:46:04.257Z,113.73
2019-02-08T04:49:09.530Z,100.33
2019-02-08T04:52:14.700Z,89.43
2019-02-08T04:55:20.350Z,81.97
2019-02-08T04:58:25.463Z,92.87
2019-02-08T05:01:30.569Z,89.63
2019-02-08T05:04:35.750Z,81.60
2019-02-08T05:07:40.886Z,95.50
2019-02-08T05:10:46.081Z,89.07
2019-02-08T05:13:51.226Z,71.17
2019-02-08T05:16:56.306Z,68.30
2019-02-08T05:20:01.498Z,66.07
2019-02-08T05:23:06.741Z,75.73
2019-02-08T05:26:11.911Z,74.30
2019-02-08T05:29:17.041Z,78.50
2019-02-08T05:32:22.183Z,77.10
2019-02-08T05:35:27.654Z,86.77
2019-02-08T05:38:32.827Z,91.33
2019-02-08T05:41:38.081Z,91.03
2019-02-08T05:44:43.315Z,85.77
2019-02-08T05:47:48.519Z,79.93
2019-02-08T05:50:53.657Z,87.43
2019-02-08T05:53:58.794Z,86.40
2019-02-08T05:57:03.943Z,67.03
2019-02-08T06:00:32.161Z,75.90
2019-02-08T06:03:37.284Z,74.77
2019-02-08T06:06:42.393Z,70.23
2019-02-08T06:09:47.536Z,69.97
2019-02-08T06:12:52.622Z,69.20
2019-02-08T06:15:57.735Z,68.80
2019-02-08T06:19:02.865Z,63.00
2019-02-08T06:22:07.988Z,73.17
2019-02-08T06:25:13.593Z,70.33
2019-02-08T06:28:18.810Z,74.13
2019-02-08T06:31:23.939Z,70.20
2019-02-08T06:34:29.076Z,69.53
2019-02-08T06:37:34.278Z,76.60
2019-02-08T06:40:42.292Z,59.33
2019-02-08T06:43:47.518Z,64.80
2019-02-08T06:46:52.639Z,63.27
2019-02-08T06:49:57.858Z,70.20
2019-02-08T06:53:03.131Z,66.57
2019-02-08T06:56:11.043Z,68.27
2019-02-08T06:59:29.159Z,54.73
2019-02-08T07:02:43.304Z,58.10
2019-02-08T07:06:07.423Z,60.03
2019-02-08T07:09:34.593Z,56.47
2019-02-08T07:13:04.828Z,61.57
2019-02-08T07:16:28.952Z,58.17
2019-02-08T07:19:53.010Z,57.53
2019-02-08T07:23:32.301Z,57.10
2019-02-08T07:27:06.692Z,51.03
2019-02-08T07:30:29.275Z,55.43
2019-02-08T07:34:05.612Z,54.23
2019-02-08T07:37:28.636Z,50.07
2019-02-08T07:41:01.508Z,54.93
2019-02-08T07:44:42.843Z,50.53
2019-02-08T07:48:07.635Z,55.53
2019-02-08T07:51:43.721Z,63.07
2019-02-08T07:54:57.801Z,56.63
2019-02-08T07:58:12.375Z,74.67
2019-02-08T08:01:44.886Z,86.47
2019-02-08T08:05:08.913Z,62.60
2019-02-08T08:08:45.186Z,51.97
2019-02-08T08:12:18.924Z,52.03
2019-02-08T08:15:37.757Z,55.83
2019-02-08T08:19:08.390Z,62.13
2019-02-08T08:22:33.556Z,59.73
2019-02-08T08:25:59.329Z,63.63
2019-02-08T08:29:19.718Z,65.33
2019-02-08T08:32:39.332Z,69.47
2019-02-08T08:36:16.542Z,62.40
2019-02-08T08:39:41.770Z,55.93
2019-02-08T08:43:34.818Z,52.27
2019-02-08T08:47:06.027Z,62.40
2019-02-08T08:50:44.618Z,56.10
2019-02-08T08:54:36.835Z,61.60
2019-02-08T08:58:04.695Z,46.00
2019-02-08T09:01:39.701Z,41.80
2019-02-08T09:05:29.242Z,82.63
2019-02-08T09:09:26.069Z,53.40
2019-02-08T09:12:57.403Z,45.77
2019-02-08T09:16:34.561Z,40.43
2019-02-08T09:20:17.163Z,47.77
2019-02-08T09:23:53.851Z,40.17
2019-02-08T09:27:48.217Z,49.47
2019-02-08T09:31:44.158Z,45.23
2019-02-08T09:36:03.926Z,44.07
2019-02-08T09:39:46.008Z,45.60
2019-02-08T09:43:26.089Z,53.67
2019-02-08T09:46:59.721Z,50.40
2019-02-08T09:50:53.923Z,51.27
2019-02-08T09:54:36.013Z,53.50
2019-02-08T09:58:18.246Z,48.87
2019-02-08T10:01:55.700Z,49.53
2019-02-08T10:05:53.919Z,47.13
2019-02-08T10:09:41.648Z,61.97
2019-02-08T10:13:22.496Z,68.40
2019-02-08T10:17:10.774Z,46.93
2019-02-08T10:20:40.474Z,39.67
2019-02-08T10:24:22.606Z,38.97
2019-02-08T10:28:12.835Z,41.57
2019-02-08T10:31:52.248Z,44.80
2019-02-08T10:35:34.346Z,43.10
2019-02-08T10:39:44.924Z,43.47
2019-02-08T10:43:25.927Z,43.70
2019-02-08T10:47:06.308Z,27.83
2019-02-08T10:50:55.910Z,18.87
2019-02-08T10:54:34.228Z,18.70
2019-02-08T10:58:15.341Z,24.27
2019-02-08T11:02:04.520Z,23.87
2019-02-08T11:05:47.131Z,15.07
2019-02-08T11:09:35.859Z,15.73
2019-02-08T11:13:46.080Z,14.97
2019-02-08T11:17:22.601Z,13.67
2019-02-08T11:23:39.880Z,14.60
2019-02-08T11:26:45.718Z,12.37
2019-02-08T11:29:51.078Z,12.33
2019-02-08T11:32:56.470Z,13.30
2019-02-08T11:36:01.857Z,18.87
2019-02-08T11:39:13.816Z,12.40
2019-02-08T11:42:19.111Z,13.73
2019-02-08T11:45:24.937Z,12.57
2019-02-08T11:48:30.175Z,10.53
2019-02-08T11:51:35.533Z,12.27
2019-02-08T11:54:40.834Z,13.40
2019-02-08T11:57:46.253Z,15.37
2019-02-08T12:00:54.219Z,8.50
2019-02-08T12:03:59.617Z,12.27
2019-02-08T12:07:05.122Z,10.37
2019-02-08T12:10:11.199Z,16.03
2019-02-08T12:13:16.525Z,15.23
2019-02-08T12:16:21.829Z,13.60
2019-02-08T12:19:27.105Z,14.33
2019-02-08T12:22:32.332Z,17.83
2019-02-08T12:25:37.678Z,11.00
2019-02-08T12:28:43.057Z,7.53
2019-02-08T12:31:48.348Z,5.60
2019-02-08T12:34:53.599Z,5.97
2019-02-08T12:37:58.905Z,6.07
2019-02-08T12:41:09.693Z,4.87
2019-02-08T12:44:12.026Z,4.77
2019-02-08T12:47:17.547Z,4.63
2019-02-08T12:50:22.890Z,5.33
2019-02-08T12:53:28.228Z,13.53
2019-02-08T12:56:33.473Z,7.83
2019-02-08T12:59:38.848Z,2.73
2019-02-08T13:02:44.253Z,9.63
2019-02-08T13:05:49.546Z,5.10
2019-02-08T13:08:54.859Z,5.70
2019-02-08T13:12:00.680Z,6.13
2019-02-08T13:15:07.723Z,3.27
2019-02-08T13:18:13.033Z,3.23
2019-02-08T13:21:18.315Z,4.43
2019-02-08T13:24:24.981Z,3.37
2019-02-08T13:27:30.314Z,6.10
2019-02-08T13:30:35.906Z,5.40
2019-02-08T13:33:41.210Z,4.97
2019-02-08T13:36:46.544Z,5.30
2019-02-08T13:39:52.030Z,5.77
2019-02-08T13:42:57.318Z,5.17
2019-02-08T13:46:02.891Z,11.07
2019-02-08T13:49:08.271Z,4.97
2019-02-08T13:52:13.622Z,4.90
2019-02-08T13:55:20.127Z,6.83
2019-02-08T13:58:25.529Z,8.43
2019-02-08T14:01:30.866Z,7.77
2019-02-08T14:04:36.192Z,5.97
2019-02-08T14:07:41.583Z,4.53
2019-02-08T14:10:46.796Z,5.13
2019-02-08T14:13:52.106Z,3.40
2019-02-08T14:16:57.449Z,4.23
2019-02-08T14:20:02.795Z,4.03
2019-02-08T14:23:08.044Z,5.93
2019-02-08T14:26:13.500Z,7.30
2019-02-08T14:29:18.849Z,6.73
2019-02-08T14:32:24.178Z,10.63
2019-02-08T14:35:29.739Z,14.10
2019-02-08T14:38:35.614Z,10.67
2019-02-08T14:41:41.036Z,9.10
2019-02-08T14:44:46.363Z,6.13
2019-02-08T14:47:51.804Z,6.43
2019-02-08T14:50:57.153Z,8.87
2019-02-08T14:54:02.641Z,6.40
2019-02-08T14:57:16.324Z,9.73
2019-02-08T15:00:18.013Z,9.93
2019-02-08T15:03:23.378Z,9.23
2019-02-08T15:06:28.629Z,8.70
2019-02-08T15:09:33.902Z,13.17
2019-02-08T15:12:39.446Z,9.37
2019-02-08T15:15:44.726Z,13.07
2019-02-08T15:18:50.019Z,10.07
2019-02-08T15:21:55.348Z,8.43
2019-02-08T15:25:00.693Z,9.93
2019-02-08T15:28:06.255Z,12.07
2019-02-08T15:31:11.573Z,21.50
2019-02-08T15:34:16.866Z,13.20
2019-02-08T15:37:22.256Z,10.33
2019-02-08T15:40:42.632Z,8.20
2019-02-08T15:43:47.922Z,10.17
2019-02-08T15:46:53.465Z,13.93
2019-02-08T15:49:58.797Z,14.77
2019-02-08T15:53:04.177Z,11.40
2019-02-08T15:56:13.637Z,13.00
2019-02-08T15:59:18.980Z,10.73
2019-02-08T16:02:24.286Z,4.13
2019-02-08T16:05:30.556Z,8.57
2019-02-08T16:08:35.886Z,13.33
2019-02-08T16:11:41.283Z,6.40
2019-02-08T16:14:46.575Z,5.07
2019-02-08T16:17:52.427Z,7.10
2019-02-08T16:20:57.813Z,5.83
2019-02-08T16:24:03.215Z,7.57
2019-02-08T16:27:08.574Z,7.20
2019-02-08T16:30:19.598Z,3.50
2019-02-08T16:33:24.949Z,7.30
2019-02-08T16:36:30.237Z,3.33
2019-02-08T16:39:35.608Z,8.63
2019-02-08T16:42:41.015Z,13.00
2019-02-08T16:45:46.533Z,9.17
2019-02-08T16:48:51.998Z,6.17
2019-02-08T16:52:28.496Z,11.17
2019-02-08T16:55:37.762Z,11.53
2019-02-08T16:58:43.296Z,12.60
2019-02-08T17:01:48.683Z,13.07
2019-02-08T17:04:54.053Z,12.40
2019-02-08T17:07:59.624Z,8.37
2019-02-08T17:11:18.519Z,11.73
2019-02-08T17:14:23.857Z,6.27
2019-02-08T17:17:29.173Z,5.97
2019-02-08T17:20:39.743Z,9.13
2019-02-08T17:23:45.103Z,10.47
2019-02-08T17:26:50.538Z,11.73
2019-02-08T17:29:56.934Z,8.90
2019-02-08T17:33:02.311Z,7.63
2019-02-08T17:36:07.623Z,8.23
2019-02-08T17:39:14.656Z,10.57
2019-02-08T17:42:20.131Z,8.87
2019-02-08T17:45:25.543Z,15.40
2019-02-08T17:48:30.887Z,15.27
2019-02-08T17:51:36.962Z,14.27
2019-02-08T17:54:42.434Z,11.50
2019-02-08T17:57:47.958Z,22.23
2019-02-08T18:00:55.514Z,42.20
2019-02-08T18:04:00.820Z,22.33
2019-02-08T18:07:06.170Z,16.93
2019-02-08T18:10:15.158Z,18.03
2019-02-08T18:13:20.537Z,22.97
2019-02-08T18:16:26.040Z,26.13
2019-02-08T18:19:31.413Z,52.37
2019-02-08T18:22:36.798Z,48.00
2019-02-08T18:25:42.619Z,45.53
2019-02-08T18:28:48.020Z,39.23
2019-02-08T18:31:53.416Z,47.20
2019-02-08T18:34:58.949Z,33.37
2019-02-08T18:38:05.276Z,33.90
2019-02-08T18:41:10.665Z,29.30
2019-02-08T18:44:16.097Z,32.07
2019-02-08T18:47:21.485Z,45.33
2019-02-08T18:50:29.176Z,34.27
2019-02-08T18:53:34.478Z,29.50
2019-02-08T18:56:39.785Z,26.27
2019-02-08T18:59:45.320Z,26.03
2019-02-08T19:02:50.686Z,26.90
2019-02-08T19:05:56.053Z,39.83
2019-02-08T19:09:01.359Z,38.60
2019-02-08T19:12:08.380Z,40.53
2019-02-08T19:15:15.351Z,68.23
2019-02-08T19:18:20.654Z,63.07
2019-02-08T19:21:25.995Z,77.20
2019-02-08T19:24:31.374Z,33.27
2019-02-08T19:27:36.835Z,40.40
2019-02-08T19:30:42.767Z,35.93
2019-02-08T19:33:48.142Z,38.47
2019-02-08T19:36:53.616Z,39.00
2019-02-08T19:39:59.137Z,40.50
2019-02-08T19:43:04.860Z,44.37
2019-02-08T19:46:10.304Z,51.03
2019-02-08T19:49:15.979Z,50.17
2019-02-08T19:52:21.284Z,44.87
2019-02-08T19:55:27.106Z,47.90
2019-02-08T19:58:34.847Z,47.33
2019-02-08T20:01:40.461Z,48.33
2019-02-08T20:04:45.878Z,46.20
2019-02-08T20:07:51.848Z,29.13
2019-02-08T20:10:57.291Z,16.33
2019-02-08T20:14:02.854Z,17.27
2019-02-08T20:17:08.565Z,14.60
2019-02-08T20:20:14.129Z,14.20
2019-02-08T20:23:19.765Z,11.73
2019-02-08T20:26:25.340Z,14.70
2019-02-08T20:29:31.934Z,16.20
2019-02-08T20:32:38.454Z,16.87
2019-02-08T20:35:43.879Z,12.90
2019-02-08T20:38:49.420Z,15.50
2019-02-08T20:41:54.808Z,19.17
2019-02-08T20:45:00.303Z,14.17
2019-02-08T20:48:12.135Z,13.33
2019-02-08T20:51:17.482Z,13.47
2019-02-08T20:54:22.927Z,24.80
2019-02-08T20:57:28.294Z,18.33
2019-02-08T21:00:37.013Z,17.40
2019-02-08T21:03:42.294Z,19.20
2019-02-08T21:06:47.803Z,16.37
2019-02-08T21:09:53.312Z,13.63
2019-02-08T21:12:58.726Z,16.50
2019-02-08T21:16:04.207Z,15.27
2019-02-08T21:19:09.791Z,36.33
2019-02-08T21:22:15.152Z,35.27
2019-02-08T21:25:23.093Z,23.83
2019-02-08T21:28:29.455Z,19.73
2019-02-08T21:31:34.791Z,19.20
2019-02-08T21:34:40.234Z,20.47
2019-02-08T21:37:45.894Z,22.33
2019-02-08T21:40:51.307Z,25.63
2019-02-08T21:43:56.792Z,24.73
2019-02-08T21:47:02.111Z,21.93
2019-02-08T21:50:10.298Z,23.30
2019-02-08T21:53:15.690Z,24.60
2019-02-08T21:56:21.266Z,22.93
2019-02-08T21:59:26.827Z,23.77
2019-02-08T22:02:32.272Z,22.63
2019-02-08T22:06:00.956Z,32.03
2019-02-08T22:09:08.920Z,34.23
2019-02-08T22:12:15.792Z,35.30
2019-02-08T22:15:24.770Z,33.93
2019-02-08T22:18:30.078Z,28.93
2019-02-08T22:21:35.454Z,23.40
2019-02-08T22:24:40.902Z,27.03
2019-02-08T22:27:46.441Z,19.23
2019-02-08T22:30:51.754Z,20.67
2019-02-08T22:33:57.149Z,19.27
2019-02-08T22:37:02.449Z,19.13
2019-02-08T22:40:10.826Z,18.20
2019-02-08T22:43:16.215Z,20.10
2019-02-08T22:46:21.820Z,21.87
2019-02-08T22:49:27.177Z,15.80
2019-02-08T22:52:32.435Z,22.10
2019-02-08T22:55:37.892Z,21.57
2019-02-08T22:58:43.346Z,18.93
2019-02-08T23:01:51.508Z,14.33
2019-02-08T23:04:59.861Z,15.10
2019-02-08T23:08:06.248Z,11.93
2019-02-08T23:11:11.637Z,13.73
2019-02-08T23:14:17.048Z,19.73
2019-02-08T23:17:22.346Z,13.33
2019-02-08T23:20:27.795Z,10.37
2019-02-08T23:23:33.422Z,9.50
2019-02-08T23:26:38.816Z,14.20
2019-02-08T23:29:44.147Z,7.77
2019-02-08T23:32:49.574Z,8.67
2019-02-08T23:35:55.074Z,7.47
2019-02-08T23:39:00.403Z,8.63
2019-02-08T23:42:07.342Z,7.83
2019-02-08T23:45:14.003Z,8.10
2019-02-08T23:48:19.294Z,10.57
2019-02-08T23:51:24.722Z,8.03
2019-02-08T23:54:29.954Z,12.90
2019-02-08T23:57:36.279Z,8.03
